sensor_id;sensor_type;location;lat;lon;timestamp;pressure;altitude;pressure_sealevel;temperature;humidity
17649;BME280;8943;51.110;-4.158;2023-04-26T03:03:51;101140.22;;;13.53;39.94
17649;BME280;8943;51.110;-4.158;2023-04-26T03:06:20;101138.13;;;13.56;39.63
17649;BME280;8943;51.110;-4.158;2023-04-26T03:08:54;101139.72;;;13.59;39.71
17649;BME280;8943;51.110;-4.158;2023-04-26T03:11:23;101128.16;;;13.58;39.62
17649;BME280;8943;51.110;-4.158;2023-04-26T03:13:54;101132.53;;;13.59;39.64
17649;BME280;8943;51.110;-4.158;2023-04-26T03:16:27;101136.06;;;13.60;39.75
17649;BME280;8943;51.110;-4.158;2023-04-26T03:19:23;101124.50;;;13.59;39.91
17649;BME280;8943;51.110;-4.158;2023-04-26T03:21:53;101124.50;;;13.59;39.66
17649;BME280;8943;51.110;-4.158;2023-04-26T03:24:25;101117.19;;;13.61;39.62
17649;BME280;8943;51.110;-4.158;2023-04-26T03:27:11;101117.31;;;13.60;39.51
17649;BME280;8943;51.110;-4.158;2023-04-26T03:29:40;101119.03;;;13.61;39.62
17649;BME280;8943;51.110;-4.158;2023-04-26T03:32:30;101115.41;;;13.62;39.85
17649;BME280;8943;51.110;-4.158;2023-04-26T03:35:22;101106.63;;;13.60;39.80
17649;BME280;8943;51.110;-4.158;2023-04-26T03:38:02;101107.38;;;13.62;39.83
17649;BME280;8943;51.110;-4.158;2023-04-26T03:40:33;101104.56;;;13.63;39.63
17649;BME280;8943;51.110;-4.158;2023-04-26T03:43:11;101107.09;;;13.65;39.76
17649;BME280;8943;51.110;-4.158;2023-04-26T03:45:45;101101.75;;;13.65;40.01
17649;BME280;8943;51.110;-4.158;2023-04-26T03:48:21;101095.53;;;13.64;39.56
17649;BME280;8943;51.110;-4.158;2023-04-26T03:50:54;101101.13;;;13.61;39.95
17649;BME280;8943;51.110;-4.158;2023-04-26T03:53:23;101097.50;;;13.62;39.97
17649;BME280;8943;51.110;-4.158;2023-04-26T03:55:52;101088.72;;;13.60;40.05
17649;BME280;8943;51.110;-4.158;2023-04-26T03:58:37;101087.03;;;13.59;40.17
17649;BME280;8943;51.110;-4.158;2023-04-26T04:01:16;101087.03;;;13.59;40.47
17649;BME280;8943;51.110;-4.158;2023-04-26T04:04:06;101102.25;;;13.59;40.18
17649;BME280;8943;51.110;-4.158;2023-04-26T04:06:39;101108.44;;;13.59;40.30
17649;BME280;8943;51.110;-4.158;2023-04-26T04:09:10;101100.28;;;13.61;39.81
17649;BME280;8943;51.110;-4.158;2023-04-26T04:11:41;101099.34;;;13.62;40.73
17649;BME280;8943;51.110;-4.158;2023-04-26T04:14:31;101093.84;;;13.63;40.03
17649;BME280;8943;51.110;-4.158;2023-04-26T04:17:08;101087.63;;;13.63;40.27
17649;BME280;8943;51.110;-4.158;2023-04-26T04:19:40;101091.03;;;13.65;40.30
17649;BME280;8943;51.110;-4.158;2023-04-26T04:22:13;101085.81;;;13.63;40.44
17649;BME280;8943;51.110;-4.158;2023-04-26T04:24:43;101093.59;;;13.67;40.54
17649;BME280;8943;51.110;-4.158;2023-04-26T04:27:14;101091.41;;;13.72;40.33
17649;BME280;8943;51.110;-4.158;2023-04-26T04:30:16;101078.97;;;13.71;40.27
17649;BME280;8943;51.110;-4.158;2023-04-26T04:34:03;101085.91;;;13.73;40.50
17649;BME280;8943;51.110;-4.158;2023-04-26T04:36:59;101082.41;;;13.73;40.17
17649;BME280;8943;51.110;-4.158;2023-04-26T04:39:46;101081.41;;;13.74;40.52
17649;BME280;8943;51.110;-4.158;2023-04-26T04:42:22;101078.59;;;13.75;40.45
17649;BME280;8943;51.110;-4.158;2023-04-26T04:45:32;101072.53;;;13.73;40.53
17649;BME280;8943;51.110;-4.158;2023-04-26T04:49:15;101069.09;;;13.71;40.39
17649;BME280;8943;51.110;-4.158;2023-04-26T09:20:24;101100.44;;;20.01;38.98
17649;BME280;8943;51.110;-4.158;2023-04-26T09:23:03;101095.25;;;20.16;38.86
17649;BME280;8943;51.110;-4.158;2023-04-26T09:25:32;101093.38;;;20.24;38.39
17649;BME280;8943;51.110;-4.158;2023-04-26T09:28:03;101090.00;;;20.30;38.35
17649;BME280;8943;51.110;-4.158;2023-04-26T09:30:37;101093.41;;;20.41;38.32
17649;BME280;8943;51.110;-4.158;2023-04-26T09:33:07;101089.03;;;20.48;38.10
17649;BME280;8943;51.110;-4.158;2023-04-26T09:35:44;101083.44;;;20.57;38.15
17649;BME280;8943;51.110;-4.158;2023-04-26T09:38:28;101083.78;;;20.63;38.30
17649;BME280;8943;51.110;-4.158;2023-04-26T09:40:58;101086.31;;;20.72;38.13
17649;BME280;8943;51.110;-4.158;2023-04-26T09:43:36;101080.06;;;20.80;37.96
17649;BME280;8943;51.110;-4.158;2023-04-26T09:46:04;101073.44;;;20.91;37.90
17649;BME280;8943;51.110;-4.158;2023-04-26T09:48:34;101071.41;;;21.01;38.18
17649;BME280;8943;51.110;-4.158;2023-04-26T09:51:09;101069.66;;;21.16;37.87
17649;BME280;8943;51.110;-4.158;2023-04-26T09:53:40;101068.28;;;21.28;37.72
17649;BME280;8943;51.110;-4.158;2023-04-26T09:56:13;101071.16;;;21.43;37.72
17649;BME280;8943;51.110;-4.158;2023-04-26T09:58:55;101082.13;;;21.50;37.37
17649;BME280;8943;51.110;-4.158;2023-04-26T10:01:26;101073.47;;;21.54;37.21
17649;BME280;8943;51.110;-4.158;2023-04-26T10:03:59;101077.00;;;21.63;nan
17649;BME280;8943;51.110;-4.158;2023-04-26T10:06:33;101066.16;;;21.63;37.07
17649;BME280;8943;51.110;-4.158;2023-04-26T10:09:02;101074.22;;;21.71;36.73
17649;BME280;8943;51.110;-4.158;2023-04-26T10:11:36;101068.13;;;21.77;37.04
17649;BME280;8943;51.110;-4.158;2023-04-26T10:14:06;101074.00;;;21.81;36.88
17649;BME280;8943;51.110;-4.158;2023-04-26T10:16:36;101064.50;;;21.85;36.99
17649;BME280;8943;51.110;-4.158;2023-04-26T10:19:07;101066.16;;;21.94;36.60
17649;BME280;8943;51.110;-4.158;2023-04-26T10:21:38;101069.84;;;22.01;36.64
17649;BME280;8943;51.110;-4.158;2023-04-26T10:24:09;101073.88;;;22.14;36.67
17649;BME280;8943;51.110;-4.158;2023-04-26T10:26:50;101071.25;;;22.20;36.36
17649;BME280;8943;51.110;-4.158;2023-04-26T10:29:21;101075.50;;;22.23;36.36
17649;BME280;8943;51.110;-4.158;2023-04-26T10:32:07;101069.88;;;22.24;36.02
17649;BME280;8943;51.110;-4.158;2023-04-26T10:34:38;101075.91;;;22.34;36.14
17649;BME280;8943;51.110;-4.158;2023-04-26T10:37:13;101079.91;;;22.47;36.03
17649;BME280;8943;51.110;-4.158;2023-04-26T10:39:45;101088.31;;;22.60;36.02
17649;BME280;8943;51.110;-4.158;2023-04-26T10:42:22;101080.75;;;22.70;35.80
17649;BME280;8943;51.110;-4.158;2023-04-26T10:44:54;101083.66;;;22.83;35.87
17649;BME280;8943;51.110;-4.158;2023-04-26T10:47:29;101091.13;;;22.90;35.76
17649;BME280;8943;51.110;-4.158;2023-04-26T10:50:04;101090.38;;;22.96;35.57
17649;BME280;8943;51.110;-4.158;2023-04-26T10:52:37;101088.25;;;23.06;35.20
17649;BME280;8943;51.110;-4.158;2023-04-26T10:55:13;101084.47;;;23.07;35.41
17649;BME280;8943;51.110;-4.158;2023-04-26T10:58:26;101083.66;;;23.06;35.24
17649;BME280;8943;51.110;-4.158;2023-04-26T11:01:14;101079.16;;;23.13;35.39
17649;BME280;8943;51.110;-4.158;2023-04-26T11:04:01;101070.47;;;23.18;35.25
17649;BME280;8943;51.110;-4.158;2023-04-26T11:06:46;101066.31;;;23.22;35.11
17649;BME280;8943;51.110;-4.158;2023-04-26T11:09:35;101060.16;;;23.28;35.36
17649;BME280;8943;51.110;-4.158;2023-04-26T11:12:10;101050.75;;;23.31;35.11
17649;BME280;8943;51.110;-4.158;2023-04-26T11:14:40;101044.94;;;23.34;34.90
17649;BME280;8943;51.110;-4.158;2023-04-26T11:17:10;101052.44;;;23.32;34.95
17649;BME280;8943;51.110;-4.158;2023-04-26T11:19:40;101040.34;;;23.34;34.97
17649;BME280;8943;51.110;-4.158;2023-04-26T11:22:09;101043.72;;;23.36;35.06
17649;BME280;8943;51.110;-4.158;2023-04-26T11:24:38;101042.97;;;23.43;34.70
17649;BME280;8943;51.110;-4.158;2023-04-26T11:27:08;101038.53;;;23.42;34.53
17649;BME280;8943;51.110;-4.158;2023-04-26T11:29:37;101040.91;;;23.45;34.47
17649;BME280;8943;51.110;-4.158;2023-04-26T11:32:06;101029.66;;;23.48;34.36
17649;BME280;8943;51.110;-4.158;2023-04-26T11:34:37;101024.47;;;23.53;34.62
17649;BME280;8943;51.110;-4.158;2023-04-26T11:37:06;101030.63;;;23.61;34.33
17649;BME280;8943;51.110;-4.158;2023-04-26T11:39:37;101019.41;;;23.64;34.45
17649;BME280;8943;51.110;-4.158;2023-04-26T11:42:06;101031.66;;;23.60;34.71
17649;BME280;8943;51.110;-4.158;2023-04-26T11:44:36;101026.72;;;23.64;34.67
17649;BME280;8943;51.110;-4.158;2023-04-26T11:47:04;101039.09;;;23.67;34.57
17649;BME280;8943;51.110;-4.158;2023-04-26T11:49:37;101033.19;;;23.63;34.78
17649;BME280;8943;51.110;-4.158;2023-04-26T11:52:07;101033.84;;;23.65;34.62
17649;BME280;8943;51.110;-4.158;2023-04-26T11:54:37;101033.50;;;23.68;34.45
17649;BME280;8943;51.110;-4.158;2023-04-26T11:57:15;101039.84;;;23.75;34.33
17649;BME280;8943;51.110;-4.158;2023-04-26T11:59:44;101032.22;;;23.85;34.68
17649;BME280;8943;51.110;-4.158;2023-04-26T12:02:13;101034.63;;;23.95;34.57
17649;BME280;8943;51.110;-4.158;2023-04-26T12:04:42;101037.59;;;24.00;34.21
17649;BME280;8943;51.110;-4.158;2023-04-26T12:07:11;101035.91;;;23.99;34.54
17649;BME280;8943;51.110;-4.158;2023-04-26T12:09:47;101023.25;;;24.06;34.91
17649;BME280;8943;51.110;-4.158;2023-04-26T12:12:15;101030.94;;;24.24;34.48
17649;BME280;8943;51.110;-4.158;2023-04-26T12:14:45;101014.97;;;24.36;34.42
17649;BME280;8943;51.110;-4.158;2023-04-26T12:17:14;101020.72;;;24.48;34.13
17649;BME280;8943;51.110;-4.158;2023-04-26T12:19:42;101014.47;;;24.54;33.84
17649;BME280;8943;51.110;-4.158;2023-04-26T12:22:11;101024.97;;;24.57;33.62
17649;BME280;8943;51.110;-4.158;2023-04-26T12:24:39;101015.84;;;24.64;33.73
17649;BME280;8943;51.110;-4.158;2023-04-26T12:27:21;101025.22;;;24.62;33.67
17649;BME280;8943;51.110;-4.158;2023-04-26T12:29:49;101027.13;;;24.61;33.31
17649;BME280;8943;51.110;-4.158;2023-04-26T12:32:18;101026.06;;;24.62;33.49
17649;BME280;8943;51.110;-4.158;2023-04-26T12:34:48;101042.22;;;24.64;33.59
17649;BME280;8943;51.110;-4.158;2023-04-26T12:37:17;101042.63;;;24.61;33.63
17649;BME280;8943;51.110;-4.158;2023-04-26T12:39:45;101040.88;;;24.53;33.54
17649;BME280;8943;51.110;-4.158;2023-04-26T12:42:15;101044.19;;;24.49;33.83
17649;BME280;8943;51.110;-4.158;2023-04-26T12:44:43;101040.75;;;24.40;33.70
17649;BME280;8943;51.110;-4.158;2023-04-26T12:47:12;101042.03;;;24.44;33.89
17649;BME280;8943;51.110;-4.158;2023-04-26T12:49:41;101042.63;;;24.39;33.58
17649;BME280;8943;51.110;-4.158;2023-04-26T12:52:11;101039.53;;;24.43;33.90
17649;BME280;8943;51.110;-4.158;2023-04-26T12:54:44;101041.28;;;24.50;33.76
17649;BME280;8943;51.110;-4.158;2023-04-26T12:57:16;101048.06;;;24.61;33.72
17649;BME280;8943;51.110;-4.158;2023-04-26T12:59:45;101055.31;;;24.75;33.64
17649;BME280;8943;51.110;-4.158;2023-04-26T13:02:45;101049.75;;;24.62;34.40
17649;BME280;8943;51.110;-4.158;2023-04-26T13:05:39;101059.81;;;24.61;34.26
17649;BME280;8943;51.110;-4.158;2023-04-26T13:08:27;101056.34;;;24.74;34.39
17649;BME280;8943;51.110;-4.158;2023-04-26T13:10:56;101063.09;;;24.78;33.90
17649;BME280;8943;51.110;-4.158;2023-04-26T13:13:35;101065.19;;;25.04;33.46
17649;BME280;8943;51.110;-4.158;2023-04-26T13:16:10;101059.69;;;25.32;32.59
17649;BME280;8943;51.110;-4.158;2023-04-26T13:18:39;101055.28;;;25.25;32.90
17649;BME280;8943;51.110;-4.158;2023-04-26T13:21:09;101060.50;;;24.98;33.60
17649;BME280;8943;51.110;-4.158;2023-04-26T13:24:03;101068.81;;;25.11;33.92
17649;BME280;8943;51.110;-4.158;2023-04-26T13:26:41;101048.88;;;25.52;34.04
17649;BME280;8943;51.110;-4.158;2023-04-26T13:30:03;101052.28;;;26.09;33.45
17649;BME280;8943;51.110;-4.158;2023-04-26T13:32:48;101043.97;;;26.50;32.94
17649;BME280;8943;51.110;-4.158;2023-04-26T13:35:32;101059.06;;;26.59;32.35
17649;BME280;8943;51.110;-4.158;2023-04-26T13:38:02;101049.41;;;26.63;31.89
17649;BME280;8943;51.110;-4.158;2023-04-26T13:40:40;101044.38;;;26.67;31.42
17649;BME280;8943;51.110;-4.158;2023-04-26T13:43:30;101049.84;;;26.67;31.68
17649;BME280;8943;51.110;-4.158;2023-04-26T13:46:28;101048.59;;;26.69;31.64
17649;BME280;8943;51.110;-4.158;2023-04-26T13:49:01;101054.03;;;26.76;31.35
17649;BME280;8943;51.110;-4.158;2023-04-26T13:51:34;101051.50;;;26.94;31.43
17649;BME280;8943;51.110;-4.158;2023-04-26T13:54:22;101053.59;;;27.06;31.24
17649;BME280;8943;51.110;-4.158;2023-04-26T13:56:57;101059.47;;;27.29;31.29
